sensor_id;sensor_type;location;lat;lon;timestamp;temperature;humidity
14061;DHT22;7105;43.616;1.434;2023-06-14T00:01:36;18.40;99.90
14061;DHT22;7105;43.616;1.434;2023-06-14T00:04:03;18.20;99.90
14061;DHT22;7105;43.616;1.434;2023-06-14T00:06:31;18.30;99.90
14061;DHT22;7105;43.616;1.434;2023-06-14T00:08:59;18.40;99.90
14061;DHT22;7105;43.616;1.434;2023-06-14T00:11:24;18.40;99.90
14061;DHT22;7105;43.616;1.434;2023-06-14T00:13:52;18.30;99.90
14061;DHT22;7105;43.616;1.434;2023-06-14T00:16:18;18.20;99.90
14061;DHT22;7105;43.616;1.434;2023-06-14T00:18:45;18.30;99.90
14061;DHT22;7105;43.616;1.434;2023-06-14T00:21:11;18.30;99.90
14061;DHT22;7105;43.616;1.434;2023-06-14T00:23:37;18.30;99.90
14061;DHT22;7105;43.616;1.434;2023-06-14T00:26:03;18.30;99.90
14061;DHT22;7105;43.616;1.434;2023-06-14T00:28:29;18.30;99.90
14061;DHT22;7105;43.616;1.434;2023-06-14T00:30:55;18.30;99.90
14061;DHT22;7105;43.616;1.434;2023-06-14T00:33:20;18.30;99.90
14061;DHT22;7105;43.616;1.434;2023-06-14T00:35:46;18.30;99.90
14061;DHT22;7105;43.616;1.434;2023-06-14T00:38:13;18.20;99.90
14061;DHT22;7105;43.616;1.434;2023-06-14T00:40:38;18.20;99.90
14061;DHT22;7105;43.616;1.434;2023-06-14T00:43:04;18.20;99.90
14061;DHT22;7105;43.616;1.434;2023-06-14T00:45:30;18.20;99.90
14061;DHT22;7105;43.616;1.434;2023-06-14T00:47:57;18.30;99.90
14061;DHT22;7105;43.616;1.434;2023-06-14T00:50:23;18.30;99.90
14061;DHT22;7105;43.616;1.434;2023-06-14T00:52:49;18.40;99.90
14061;DHT22;7105;43.616;1.434;2023-06-14T00:55:16;18.40;99.90
14061;DHT22;7105;43.616;1.434;2023-06-14T00:57:41;18.40;99.90
14061;DHT22;7105;43.616;1.434;2023-06-14T01:00:08;18.40;99.90
14061;DHT22;7105;43.616;1.434;2023-06-14T01:02:37;18.40;99.90
14061;DHT22;7105;43.616;1.434;2023-06-14T01:05:03;18.50;99.90
14061;DHT22;7105;43.616;1.434;2023-06-14T01:08:14;18.60;99.90
14061;DHT22;7105;43.616;1.434;2023-06-14T01:13:11;18.40;99.90
14061;DHT22;7105;43.616;1.434;2023-06-14T01:15:39;18.50;99.90
14061;DHT22;7105;43.616;1.434;2023-06-14T01:18:05;18.40;99.90
14061;DHT22;7105;43.616;1.434;2023-06-14T01:20:34;18.50;99.90
14061;DHT22;7105;43.616;1.434;2023-06-14T01:23:02;18.50;99.90
14061;DHT22;7105;43.616;1.434;2023-06-14T01:25:28;18.50;99.90
14061;DHT22;7105;43.616;1.434;2023-06-14T01:28:03;18.60;99.90
14061;DHT22;7105;43.616;1.434;2023-06-14T01:30:30;18.70;99.90
14061;DHT22;7105;43.616;1.434;2023-06-14T01:32:57;18.70;99.90
14061;DHT22;7105;43.616;1.434;2023-06-14T01:35:23;18.70;99.90
14061;DHT22;7105;43.616;1.434;2023-06-14T01:37:49;18.70;99.90
14061;DHT22;7105;43.616;1.434;2023-06-14T01:40:18;18.80;99.90
14061;DHT22;7105;43.616;1.434;2023-06-14T01:42:46;18.70;99.90
14061;DHT22;7105;43.616;1.434;2023-06-14T01:45:14;18.70;99.90
14061;DHT22;7105;43.616;1.434;2023-06-14T01:47:40;18.70;99.90
14061;DHT22;7105;43.616;1.434;2023-06-14T01:50:06;18.60;99.90
14061;DHT22;7105;43.616;1.434;2023-06-14T01:52:32;18.60;99.90
14061;DHT22;7105;43.616;1.434;2023-06-14T01:54:58;18.60;99.90
14061;DHT22;7105;43.616;1.434;2023-06-14T01:57:24;18.60;99.90
14061;DHT22;7105;43.616;1.434;2023-06-14T01:59:52;18.60;99.90
14061;DHT22;7105;43.616;1.434;2023-06-14T02:02:18;18.60;99.90
14061;DHT22;7105;43.616;1.434;2023-06-14T02:04:43;18.60;99.90
14061;DHT22;7105;43.616;1.434;2023-06-14T02:07:11;18.60;99.90
14061;DHT22;7105;43.616;1.434;2023-06-14T02:09:37;18.60;99.90
14061;DHT22;7105;43.616;1.434;2023-06-14T02:12:03;18.50;99.90
14061;DHT22;7105;43.616;1.434;2023-06-14T02:14:28;18.60;99.90
14061;DHT22;7105;43.616;1.434;2023-06-14T02:16:54;18.50;99.90
14061;DHT22;7105;43.616;1.434;2023-06-14T02:19:20;18.50;99.90
14061;DHT22;7105;43.616;1.434;2023-06-14T02:21:47;18.50;99.90
14061;DHT22;7105;43.616;1.434;2023-06-14T02:24:13;18.50;99.90
14061;DHT22;7105;43.616;1.434;2023-06-14T02:26:39;18.50;99.90
14061;DHT22;7105;43.616;1.434;2023-06-14T02:29:06;18.60;99.90
14061;DHT22;7105;43.616;1.434;2023-06-14T02:31:35;18.50;99.90
14061;DHT22;7105;43.616;1.434;2023-06-14T02:34:01;18.50;99.90
14061;DHT22;7105;43.616;1.434;2023-06-14T02:36:26;18.60;99.90
14061;DHT22;7105;43.616;1.434;2023-06-14T02:38:52;18.60;99.90
14061;DHT22;7105;43.616;1.434;2023-06-14T02:41:19;18.60;99.90
14061;DHT22;7105;43.616;1.434;2023-06-14T02:43:45;18.50;99.90
14061;DHT22;7105;43.616;1.434;2023-06-14T02:46:11;18.50;99.90
14061;DHT22;7105;43.616;1.434;2023-06-14T02:48:36;18.50;99.90
14061;DHT22;7105;43.616;1.434;2023-06-14T02:51:02;18.40;99.90
14061;DHT22;7105;43.616;1.434;2023-06-14T02:53:28;18.40;99.90
14061;DHT22;7105;43.616;1.434;2023-06-14T02:55:53;18.40;99.90
14061;DHT22;7105;43.616;1.434;2023-06-14T02:58:21;18.40;99.90
14061;DHT22;7105;43.616;1.434;2023-06-14T03:00:46;18.50;99.90
14061;DHT22;7105;43.616;1.434;2023-06-14T03:03:12;18.50;99.90
14061;DHT22;7105;43.616;1.434;2023-06-14T03:05:44;18.40;99.90
14061;DHT22;7105;43.616;1.434;2023-06-14T03:08:15;18.40;99.90
14061;DHT22;7105;43.616;1.434;2023-06-14T03:10:43;18.30;99.90
14061;DHT22;7105;43.616;1.434;2023-06-14T03:13:09;18.40;99.90
14061;DHT22;7105;43.616;1.434;2023-06-14T03:15:36;18.40;99.90
14061;DHT22;7105;43.616;1.434;2023-06-14T03:18:02;18.30;99.90
14061;DHT22;7105;43.616;1.434;2023-06-14T03:20:29;18.30;99.90
14061;DHT22;7105;43.616;1.434;2023-06-14T03:22:55;18.30;99.90
14061;DHT22;7105;43.616;1.434;2023-06-14T03:25:21;18.30;99.90
14061;DHT22;7105;43.616;1.434;2023-06-14T03:27:47;18.20;99.90
14061;DHT22;7105;43.616;1.434;2023-06-14T03:30:13;18.20;99.90
14061;DHT22;7105;43.616;1.434;2023-06-14T03:32:39;18.20;99.90
14061;DHT22;7105;43.616;1.434;2023-06-14T03:35:05;18.20;99.90
14061;DHT22;7105;43.616;1.434;2023-06-14T03:37:31;18.20;99.90
14061;DHT22;7105;43.616;1.434;2023-06-14T03:39:57;18.20;99.90
14061;DHT22;7105;43.616;1.434;2023-06-14T03:42:22;18.20;99.90
14061;DHT22;7105;43.616;1.434;2023-06-14T03:44:48;18.20;99.90
14061;DHT22;7105;43.616;1.434;2023-06-14T03:47:14;18.20;99.90
14061;DHT22;7105;43.616;1.434;2023-06-14T03:49:40;18.20;99.90
14061;DHT22;7105;43.616;1.434;2023-06-14T03:52:06;18.10;99.90
14061;DHT22;7105;43.616;1.434;2023-06-14T03:54:32;18.20;99.90
14061;DHT22;7105;43.616;1.434;2023-06-14T03:56:58;18.20;99.90
14061;DHT22;7105;43.616;1.434;2023-06-14T03:59:24;18.20;99.90
14061;DHT22;7105;43.616;1.434;2023-06-14T04:01:51;18.20;99.90
14061;DHT22;7105;43.616;1.434;2023-06-14T04:04:17;18.30;99.90
14061;DHT22;7105;43.616;1.434;2023-06-14T04:06:43;18.30;99.90
14061;DHT22;7105;43.616;1.434;2023-06-14T04:09:09;18.20;99.90
14061;DHT22;7105;43.616;1.434;2023-06-14T04:11:35;18.40;99.90
14061;DHT22;7105;43.616;1.434;2023-06-14T04:14:02;18.40;99.90
14061;DHT22;7105;43.616;1.434;2023-06-14T04:16:28;18.30;99.90
14061;DHT22;7105;43.616;1.434;2023-06-14T04:18:55;18.30;99.90
14061;DHT22;7105;43.616;1.434;2023-06-14T04:21:23;18.30;99.90
14061;DHT22;7105;43.616;1.434;2023-06-14T04:23:48;18.30;99.90
14061;DHT22;7105;43.616;1.434;2023-06-14T04:26:18;18.40;99.90
14061;DHT22;7105;43.616;1.434;2023-06-14T04:28:45;18.30;99.90
14061;DHT22;7105;43.616;1.434;2023-06-14T04:31:12;18.30;99.90
14061;DHT22;7105;43.616;1.434;2023-06-14T04:33:38;18.30;99.90
14061;DHT22;7105;43.616;1.434;2023-06-14T04:36:12;18.30;99.90
14061;DHT22;7105;43.616;1.434;2023-06-14T04:38:39;18.30;99.90
14061;DHT22;7105;43.616;1.434;2023-06-14T04:41:05;18.40;99.90
14061;DHT22;7105;43.616;1.434;2023-06-14T04:43:31;18.40;99.90
14061;DHT22;7105;43.616;1.434;2023-06-14T04:46:04;18.40;99.90
14061;DHT22;7105;43.616;1.434;2023-06-14T04:48:31;18.40;99.90
14061;DHT22;7105;43.616;1.434;2023-06-14T04:50:57;18.50;99.90
14061;DHT22;7105;43.616;1.434;2023-06-14T04:53:23;18.40;99.90
14061;DHT22;7105;43.616;1.434;2023-06-14T04:55:49;18.40;99.90
14061;DHT22;7105;43.616;1.434;2023-06-14T04:58:16;18.40;99.90
14061;DHT22;7105;43.616;1.434;2023-06-14T05:00:41;18.40;99.90
14061;DHT22;7105;43.616;1.434;2023-06-14T05:03:09;18.50;99.90
14061;DHT22;7105;43.616;1.434;2023-06-14T05:05:34;18.40;99.90
14061;DHT22;7105;43.616;1.434;2023-06-14T05:08:00;18.40;99.90
14061;DHT22;7105;43.616;1.434;2023-06-14T05:10:29;18.50;99.90
14061;DHT22;7105;43.616;1.434;2023-06-14T05:12:54;18.50;99.90
14061;DHT22;7105;43.616;1.434;2023-06-14T05:15:20;18.50;99.90
14061;DHT22;7105;43.616;1.434;2023-06-14T05:17:50;18.50;99.90
14061;DHT22;7105;43.616;1.434;2023-06-14T05:20:24;18.50;99.90
14061;DHT22;7105;43.616;1.434;2023-06-14T05:22:51;18.60;99.90
14061;DHT22;7105;43.616;1.434;2023-06-14T05:25:18;18.60;99.90
14061;DHT22;7105;43.616;1.434;2023-06-14T05:27:43;18.60;99.90
14061;DHT22;7105;43.616;1.434;2023-06-14T05:30:10;18.70;99.90
14061;DHT22;7105;43.616;1.434;2023-06-14T05:32:36;18.70;99.90
14061;DHT22;7105;43.616;1.434;2023-06-14T05:35:01;18.70;99.90
14061;DHT22;7105;43.616;1.434;2023-06-14T05:37:27;18.70;99.90
14061;DHT22;7105;43.616;1.434;2023-06-14T05:39:53;18.80;99.90
14061;DHT22;7105;43.616;1.434;2023-06-14T05:42:18;18.80;99.90
14061;DHT22;7105;43.616;1.434;2023-06-14T05:44:44;18.80;99.90
14061;DHT22;7105;43.616;1.434;2023-06-14T05:47:10;18.80;99.90
14061;DHT22;7105;43.616;1.434;2023-06-14T05:49:35;18.90;99.90
14061;DHT22;7105;43.616;1.434;2023-06-14T05:52:01;18.90;99.90
14061;DHT22;7105;43.616;1.434;2023-06-14T05:54:27;18.90;99.90
14061;DHT22;7105;43.616;1.434;2023-06-14T05:56:52;18.90;99.90
14061;DHT22;7105;43.616;1.434;2023-06-14T05:59:19;19.00;99.90
14061;DHT22;7105;43.616;1.434;2023-06-14T06:01:45;19.00;99.90
14061;DHT22;7105;43.616;1.434;2023-06-14T06:04:11;19.00;99.90
14061;DHT22;7105;43.616;1.434;2023-06-14T06:06:37;19.00;99.90
14061;DHT22;7105;43.616;1.434;2023-06-14T06:09:03;19.00;99.90
14061;DHT22;7105;43.616;1.434;2023-06-14T06:11:29;19.00;99.90
14061;DHT22;7105;43.616;1.434;2023-06-14T06:13:54;19.10;99.90
14061;DHT22;7105;43.616;1.434;2023-06-14T06:16:20;19.10;99.90
14061;DHT22;7105;43.616;1.434;2023-06-14T06:18:46;19.10;99.90
14061;DHT22;7105;43.616;1.434;2023-06-14T06:21:11;19.10;99.90
14061;DHT22;7105;43.616;1.434;2023-06-14T06:23:37;19.20;99.90
14061;DHT22;7105;43.616;1.434;2023-06-14T06:26:03;19.20;99.90
14061;DHT22;7105;43.616;1.434;2023-06-14T06:28:28;19.20;99.90
14061;DHT22;7105;43.616;1.434;2023-06-14T06:30:54;19.30;99.90
14061;DHT22;7105;43.616;1.434;2023-06-14T06:33:21;19.30;99.90
14061;DHT22;7105;43.616;1.434;2023-06-14T06:35:46;19.50;99.90
14061;DHT22;7105;43.616;1.434;2023-06-14T06:38:12;19.50;99.90
14061;DHT22;7105;43.616;1.434;2023-06-14T06:40:38;19.60;99.90
14061;DHT22;7105;43.616;1.434;2023-06-14T06:43:03;19.50;99.90
14061;DHT22;7105;43.616;1.434;2023-06-14T06:45:29;19.40;99.90
14061;DHT22;7105;43.616;1.434;2023-06-14T06:47:56;19.30;99.90
14061;DHT22;7105;43.616;1.434;2023-06-14T06:50:21;19.40;99.90
14061;DHT22;7105;43.616;1.434;2023-06-14T06:52:50;19.50;99.90
14061;DHT22;7105;43.616;1.434;2023-06-14T06:55:16;19.40;99.90
14061;DHT22;7105;43.616;1.434;2023-06-14T06:57:43;19.50;99.90
14061;DHT22;7105;43.616;1.434;2023-06-14T07:00:09;19.50;99.90
14061;DHT22;7105;43.616;1.434;2023-06-14T07:02:36;19.60;99.90
14061;DHT22;7105;43.616;1.434;2023-06-14T07:05:02;19.60;99.90
14061;DHT22;7105;43.616;1.434;2023-06-14T07:07:28;19.70;99.90
14061;DHT22;7105;43.616;1.434;2023-06-14T07:09:53;19.60;99.90
14061;DHT22;7105;43.616;1.434;2023-06-14T07:12:19;19.60;99.90
14061;DHT22;7105;43.616;1.434;2023-06-14T07:14:45;19.70;99.90
14061;DHT22;7105;43.616;1.434;2023-06-14T07:17:11;19.80;99.90
14061;DHT22;7105;43.616;1.434;2023-06-14T07:19:36;19.80;99.90
14061;DHT22;7105;43.616;1.434;2023-06-14T07:22:02;19.80;99.90
14061;DHT22;7105;43.616;1.434;2023-06-14T07:24:28;19.70;99.90
14061;DHT22;7105;43.616;1.434;2023-06-14T07:26:54;19.60;99.90
14061;DHT22;7105;43.616;1.434;2023-06-14T07:29:20;19.70;99.90
14061;DHT22;7105;43.616;1.434;2023-06-14T07:31:46;19.60;99.90
14061;DHT22;7105;43.616;1.434;2023-06-14T07:34:12;19.60;99.90
14061;DHT22;7105;43.616;1.434;2023-06-14T07:36:38;19.70;99.90
14061;DHT22;7105;43.616;1.434;2023-06-14T07:39:04;19.70;99.90
14061;DHT22;7105;43.616;1.434;2023-06-14T07:41:32;19.60;99.90
14061;DHT22;7105;43.616;1.434;2023-06-14T07:43:59;19.60;99.90
14061;DHT22;7105;43.616;1.434;2023-06-14T07:46:25;19.80;99.90
14061;DHT22;7105;43.616;1.434;2023-06-14T07:48:50;19.80;99.90
14061;DHT22;7105;43.616;1.434;2023-06-14T07:51:16;19.80;99.90
14061;DHT22;7105;43.616;1.434;2023-06-14T07:53:42;19.80;99.90
14061;DHT22;7105;43.616;1.434;2023-06-14T07:56:08;19.90;99.90
14061;DHT22;7105;43.616;1.434;2023-06-14T07:58:33;20.00;99.90
14061;DHT22;7105;43.616;1.434;2023-06-14T08:00:59;20.10;99.90
14061;DHT22;7105;43.616;1.434;2023-06-14T08:03:26;20.10;99.90
14061;DHT22;7105;43.616;1.434;2023-06-14T08:05:53;20.10;99.90
14061;DHT22;7105;43.616;1.434;2023-06-14T08:08:19;20.10;99.90
14061;DHT22;7105;43.616;1.434;2023-06-14T08:10:45;20.20;99.90
14061;DHT22;7105;43.616;1.434;2023-06-14T08:13:12;20.30;99.90
14061;DHT22;7105;43.616;1.434;2023-06-14T08:15:38;20.50;99.90
14061;DHT22;7105;43.616;1.434;2023-06-14T08:18:04;20.70;99.90
14061;DHT22;7105;43.616;1.434;2023-06-14T08:20:30;20.90;99.90
14061;DHT22;7105;43.616;1.434;2023-06-14T08:22:57;21.00;99.90
14061;DHT22;7105;43.616;1.434;2023-06-14T08:25:23;21.20;99.90
14061;DHT22;7105;43.616;1.434;2023-06-14T08:27:49;21.30;99.90
14061;DHT22;7105;43.616;1.434;2023-06-14T08:30:15;21.20;99.90
14061;DHT22;7105;43.616;1.434;2023-06-14T08:32:43;21.10;99.90
14061;DHT22;7105;43.616;1.434;2023-06-14T08:35:08;20.90;99.90
14061;DHT22;7105;43.616;1.434;2023-06-14T08:37:38;21.10;99.90
14061;DHT22;7105;43.616;1.434;2023-06-14T08:40:22;21.00;99.90
14061;DHT22;7105;43.616;1.434;2023-06-14T08:42:51;21.00;99.90
14061;DHT22;7105;43.616;1.434;2023-06-14T08:45:19;21.60;99.90
14061;DHT22;7105;43.616;1.434;2023-06-14T08:47:47;21.40;99.90
14061;DHT22;7105;43.616;1.434;2023-06-14T08:50:19;21.30;99.90
14061;DHT22;7105;43.616;1.434;2023-06-14T08:52:45;21.50;99.90
14061;DHT22;7105;43.616;1.434;2023-06-14T08:55:15;22.00;99.90
14061;DHT22;7105;43.616;1.434;2023-06-14T08:57:44;22.00;99.90
14061;DHT22;7105;43.616;1.434;2023-06-14T09:00:12;22.00;99.90
14061;DHT22;7105;43.616;1.434;2023-06-14T09:02:39;22.20;99.90
14061;DHT22;7105;43.616;1.434;2023-06-14T09:05:11;22.20;99.90
14061;DHT22;7105;43.616;1.434;2023-06-14T09:07:39;22.30;99.90
14061;DHT22;7105;43.616;1.434;2023-06-14T09:10:13;22.00;99.90
14061;DHT22;7105;43.616;1.434;2023-06-14T09:12:39;21.80;99.90
14061;DHT22;7105;43.616;1.434;2023-06-14T09:15:06;22.00;99.90
14061;DHT22;7105;43.616;1.434;2023-06-14T09:17:37;21.90;99.90
14061;DHT22;7105;43.616;1.434;2023-06-14T09:20:03;22.30;99.90
14061;DHT22;7105;43.616;1.434;2023-06-14T09:22:35;22.70;99.90
14061;DHT22;7105;43.616;1.434;2023-06-14T09:25:01;22.70;99.90
14061;DHT22;7105;43.616;1.434;2023-06-14T09:27:30;23.00;99.90
14061;DHT22;7105;43.616;1.434;2023-06-14T09:29:56;22.90;99.90
14061;DHT22;7105;43.616;1.434;2023-06-14T09:32:28;22.80;99.90
14061;DHT22;7105;43.616;1.434;2023-06-14T09:34:54;22.70;99.90
14061;DHT22;7105;43.616;1.434;2023-06-14T09:37:29;23.00;99.90
14061;DHT22;7105;43.616;1.434;2023-06-14T09:39:55;22.90;99.90
14061;DHT22;7105;43.616;1.434;2023-06-14T09:42:21;22.70;99.90
14061;DHT22;7105;43.616;1.434;2023-06-14T09:44:49;22.70;99.90
14061;DHT22;7105;43.616;1.434;2023-06-14T09:47:15;22.50;99.90
14061;DHT22;7105;43.616;1.434;2023-06-14T09:49:42;22.50;99.90
14061;DHT22;7105;43.616;1.434;2023-06-14T09:52:13;23.30;99.90
14061;DHT22;7105;43.616;1.434;2023-06-14T09:54:42;24.20;99.90
14061;DHT22;7105;43.616;1.434;2023-06-14T09:57:21;24.70;99.90
14061;DHT22;7105;43.616;1.434;2023-06-14T09:59:48;24.10;99.90
14061;DHT22;7105;43.616;1.434;2023-06-14T10:04:53;23.50;99.90
14061;DHT22;7105;43.616;1.434;2023-06-14T10:07:19;23.40;99.90
14061;DHT22;7105;43.616;1.434;2023-06-14T10:09:47;23.70;99.90
14061;DHT22;7105;43.616;1.434;2023-06-14T10:12:17;24.00;99.90
14061;DHT22;7105;43.616;1.434;2023-06-14T10:14:49;24.30;99.90
14061;DHT22;7105;43.616;1.434;2023-06-14T10:17:27;25.30;99.90
14061;DHT22;7105;43.616;1.434;2023-06-14T10:23:00;24.00;99.90
14061;DHT22;7105;43.616;1.434;2023-06-14T10:25:31;24.10;99.90
14061;DHT22;7105;43.616;1.434;2023-06-14T10:28:16;24.20;99.90
14061;DHT22;7105;43.616;1.434;2023-06-14T10:31:17;24.70;99.90
14061;DHT22;7105;43.616;1.434;2023-06-14T10:33:50;24.50;99.90
14061;DHT22;7105;43.616;1.434;2023-06-14T10:36:28;24.90;99.90
14061;DHT22;7105;43.616;1.434;2023-06-14T10:41:27;24.60;99.90
14061;DHT22;7105;43.616;1.434;2023-06-14T10:46:54;25.30;99.90
14061;DHT22;7105;43.616;1.434;2023-06-14T10:49:20;25.60;99.90
14061;DHT22;7105;43.616;1.434;2023-06-14T10:52:03;25.30;99.90
14061;DHT22;7105;43.616;1.434;2023-06-14T10:54:28;24.60;99.90
14061;DHT22;7105;43.616;1.434;2023-06-14T10:56:54;24.70;99.90
14061;DHT22;7105;43.616;1.434;2023-06-14T10:59:20;25.00;99.90
14061;DHT22;7105;43.616;1.434;2023-06-14T11:04:52;25.00;99.90
14061;DHT22;7105;43.616;1.434;2023-06-14T11:07:45;24.90;99.90
14061;DHT22;7105;43.616;1.434;2023-06-14T11:10:37;24.80;99.90
14061;DHT22;7105;43.616;1.434;2023-06-14T11:13:04;25.00;99.90
14061;DHT22;7105;43.616;1.434;2023-06-14T11:15:30;24.80;99.90
14061;DHT22;7105;43.616;1.434;2023-06-14T11:17:57;24.80;99.90
14061;DHT22;7105;43.616;1.434;2023-06-14T11:20:34;25.00;99.90
14061;DHT22;7105;43.616;1.434;2023-06-14T11:23:01;25.20;99.90
14061;DHT22;7105;43.616;1.434;2023-06-14T11:25:28;25.40;99.90
14061;DHT22;7105;43.616;1.434;2023-06-14T11:27:54;25.60;99.90
14061;DHT22;7105;43.616;1.434;2023-06-14T11:30:24;25.60;99.90
14061;DHT22;7105;43.616;1.434;2023-06-14T11:32:54;25.50;99.90
14061;DHT22;7105;43.616;1.434;2023-06-14T11:35:25;25.40;99.90
14061;DHT22;7105;43.616;1.434;2023-06-14T11:37:55;25.30;99.90
14061;DHT22;7105;43.616;1.434;2023-06-14T11:40:27;25.80;99.90
14061;DHT22;7105;43.616;1.434;2023-06-14T11:43:00;25.80;99.90
14061;DHT22;7105;43.616;1.434;2023-06-14T11:45:29;25.70;99.90
14061;DHT22;7105;43.616;1.434;2023-06-14T11:47:56;26.10;99.90
14061;DHT22;7105;43.616;1.434;2023-06-14T11:50:22;26.00;99.90
14061;DHT22;7105;43.616;1.434;2023-06-14T11:52:58;26.30;99.90
14061;DHT22;7105;43.616;1.434;2023-06-14T11:55:36;26.10;99.90
14061;DHT22;7105;43.616;1.434;2023-06-14T11:58:02;26.50;99.90
14061;DHT22;7105;43.616;1.434;2023-06-14T12:00:29;26.20;99.90
14061;DHT22;7105;43.616;1.434;2023-06-14T12:02:58;25.90;99.90
14061;DHT22;7105;43.616;1.434;2023-06-14T12:05:25;25.70;99.90
14061;DHT22;7105;43.616;1.434;2023-06-14T12:07:58;25.80;99.90
14061;DHT22;7105;43.616;1.434;2023-06-14T12:10:28;26.00;99.90
14061;DHT22;7105;43.616;1.434;2023-06-14T12:12:58;25.90;99.90
14061;DHT22;7105;43.616;1.434;2023-06-14T12:15:24;26.20;99.90
14061;DHT22;7105;43.616;1.434;2023-06-14T12:17:50;26.20;99.90
14061;DHT22;7105;43.616;1.434;2023-06-14T12:20:16;25.90;99.90
14061;DHT22;7105;43.616;1.434;2023-06-14T12:22:56;25.70;99.90
14061;DHT22;7105;43.616;1.434;2023-06-14T12:25:32;26.10;99.90
14061;DHT22;7105;43.616;1.434;2023-06-14T12:27:59;26.10;99.90
14061;DHT22;7105;43.616;1.434;2023-06-14T12:30:25;26.20;99.90
14061;DHT22;7105;43.616;1.434;2023-06-14T12:32:51;26.00;99.90
14061;DHT22;7105;43.616;1.434;2023-06-14T12:35:17;26.00;99.90
14061;DHT22;7105;43.616;1.434;2023-06-14T12:37:44;26.20;99.90
14061;DHT22;7105;43.616;1.434;2023-06-14T12:40:11;26.20;99.90
14061;DHT22;7105;43.616;1.434;2023-06-14T12:42:37;26.20;99.90
14061;DHT22;7105;43.616;1.434;2023-06-14T12:45:03;26.30;99.90
14061;DHT22;7105;43.616;1.434;2023-06-14T12:47:29;26.60;99.90
14061;DHT22;7105;43.616;1.434;2023-06-14T12:49:55;26.70;99.90
14061;DHT22;7105;43.616;1.434;2023-06-14T12:52:21;27.00;99.90
14061;DHT22;7105;43.616;1.434;2023-06-14T12:54:46;26.90;99.90
14061;DHT22;7105;43.616;1.434;2023-06-14T12:57:12;26.70;99.90
14061;DHT22;7105;43.616;1.434;2023-06-14T12:59:38;26.70;99.90
14061;DHT22;7105;43.616;1.434;2023-06-14T13:02:17;26.90;99.90
14061;DHT22;7105;43.616;1.434;2023-06-14T13:04:43;26.70;99.90
14061;DHT22;7105;43.616;1.434;2023-06-14T13:07:09;26.80;99.90
14061;DHT22;7105;43.616;1.434;2023-06-14T13:09:36;26.60;99.90
14061;DHT22;7105;43.616;1.434;2023-06-14T13:12:02;26.40;99.90
14061;DHT22;7105;43.616;1.434;2023-06-14T13:14:28;26.60;99.90
14061;DHT22;7105;43.616;1.434;2023-06-14T13:16:54;26.90;99.90
14061;DHT22;7105;43.616;1.434;2023-06-14T13:19:20;27.20;99.90
14061;DHT22;7105;43.616;1.434;2023-06-14T13:21:47;27.00;99.90
14061;DHT22;7105;43.616;1.434;2023-06-14T13:24:13;27.10;99.90
14061;DHT22;7105;43.616;1.434;2023-06-14T13:26:39;27.20;99.90
14061;DHT22;7105;43.616;1.434;2023-06-14T13:29:05;26.60;99.90
14061;DHT22;7105;43.616;1.434;2023-06-14T13:31:30;26.70;99.90
14061;DHT22;7105;43.616;1.434;2023-06-14T13:33:56;27.10;99.90
14061;DHT22;7105;43.616;1.434;2023-06-14T13:36:22;27.30;99.90
14061;DHT22;7105;43.616;1.434;2023-06-14T13:38:48;27.50;99.90
14061;DHT22;7105;43.616;1.434;2023-06-14T13:41:13;27.00;99.90
14061;DHT22;7105;43.616;1.434;2023-06-14T13:43:39;27.40;99.90
14061;DHT22;7105;43.616;1.434;2023-06-14T13:46:05;27.30;99.90
14061;DHT22;7105;43.616;1.434;2023-06-14T13:48:31;27.20;99.90
14061;DHT22;7105;43.616;1.434;2023-06-14T13:50:59;27.00;99.90
14061;DHT22;7105;43.616;1.434;2023-06-14T13:53:25;26.90;99.90
14061;DHT22;7105;43.616;1.434;2023-06-14T13:55:54;26.70;99.90
14061;DHT22;7105;43.616;1.434;2023-06-14T13:58:19;26.90;99.90
14061;DHT22;7105;43.616;1.434;2023-06-14T14:00:45;26.90;99.90
14061;DHT22;7105;43.616;1.434;2023-06-14T14:03:11;26.60;99.90
14061;DHT22;7105;43.616;1.434;2023-06-14T14:05:36;26.60;99.90
14061;DHT22;7105;43.616;1.434;2023-06-14T14:08:02;26.50;99.90
14061;DHT22;7105;43.616;1.434;2023-06-14T14:10:29;26.90;99.90
14061;DHT22;7105;43.616;1.434;2023-06-14T14:12:55;26.30;99.90
14061;DHT22;7105;43.616;1.434;2023-06-14T14:15:20;26.40;99.90
14061;DHT22;7105;43.616;1.434;2023-06-14T14:17:46;26.40;99.90
14061;DHT22;7105;43.616;1.434;2023-06-14T14:20:12;26.40;99.90
14061;DHT22;7105;43.616;1.434;2023-06-14T14:22:41;26.40;99.90
14061;DHT22;7105;43.616;1.434;2023-06-14T14:25:08;26.30;99.90
14061;DHT22;7105;43.616;1.434;2023-06-14T14:27:33;26.40;99.90
14061;DHT22;7105;43.616;1.434;2023-06-14T14:29:59;26.60;99.90
14061;DHT22;7105;43.616;1.434;2023-06-14T14:32:25;26.60;99.90
14061;DHT22;7105;43.616;1.434;2023-06-14T14:34:51;26.30;99.90
14061;DHT22;7105;43.616;1.434;2023-06-14T14:37:16;26.10;99.90
14061;DHT22;7105;43.616;1.434;2023-06-14T14:39:44;26.00;99.90
14061;DHT22;7105;43.616;1.434;2023-06-14T14:42:11;26.00;99.90
14061;DHT22;7105;43.616;1.434;2023-06-14T14:44:38;25.90;99.90
14061;DHT22;7105;43.616;1.434;2023-06-14T14:47:04;25.70;99.90
14061;DHT22;7105;43.616;1.434;2023-06-14T14:49:31;25.70;99.90
14061;DHT22;7105;43.616;1.434;2023-06-14T14:51:56;25.50;99.90
14061;DHT22;7105;43.616;1.434;2023-06-14T14:54:22;25.60;99.90
14061;DHT22;7105;43.616;1.434;2023-06-14T14:56:49;26.20;99.90
14061;DHT22;7105;43.616;1.434;2023-06-14T14:59:14;26.40;99.90
14061;DHT22;7105;43.616;1.434;2023-06-14T15:01:40;26.60;99.90
14061;DHT22;7105;43.616;1.434;2023-06-14T15:04:06;26.90;99.90
14061;DHT22;7105;43.616;1.434;2023-06-14T15:06:32;27.00;99.90
14061;DHT22;7105;43.616;1.434;2023-06-14T15:09:01;27.10;99.90
14061;DHT22;7105;43.616;1.434;2023-06-14T15:11:27;26.40;99.90
14061;DHT22;7105;43.616;1.434;2023-06-14T15:13:52;26.20;99.90
14061;DHT22;7105;43.616;1.434;2023-06-14T15:16:19;26.30;99.90
14061;DHT22;7105;43.616;1.434;2023-06-14T15:18:44;26.20;99.90
14061;DHT22;7105;43.616;1.434;2023-06-14T15:21:11;26.00;99.90
14061;DHT22;7105;43.616;1.434;2023-06-14T15:23:37;25.90;99.90
14061;DHT22;7105;43.616;1.434;2023-06-14T15:26:03;25.90;99.90
14061;DHT22;7105;43.616;1.434;2023-06-14T15:28:28;26.00;99.90
14061;DHT22;7105;43.616;1.434;2023-06-14T15:30:55;26.00;99.90
14061;DHT22;7105;43.616;1.434;2023-06-14T15:33:22;26.00;99.90
14061;DHT22;7105;43.616;1.434;2023-06-14T15:35:47;25.90;99.90
14061;DHT22;7105;43.616;1.434;2023-06-14T15:38:13;26.10;99.90
14061;DHT22;7105;43.616;1.434;2023-06-14T15:40:39;26.00;99.90
14061;DHT22;7105;43.616;1.434;2023-06-14T15:43:05;26.10;99.90
14061;DHT22;7105;43.616;1.434;2023-06-14T15:45:30;25.70;99.90
14061;DHT22;7105;43.616;1.434;2023-06-14T15:47:59;25.60;99.90
14061;DHT22;7105;43.616;1.434;2023-06-14T15:50:26;25.60;99.90
14061;DHT22;7105;43.616;1.434;2023-06-14T15:52:51;25.60;99.90
14061;DHT22;7105;43.616;1.434;2023-06-14T15:55:18;25.60;99.90
14061;DHT22;7105;43.616;1.434;2023-06-14T15:57:44;25.50;99.90
14061;DHT22;7105;43.616;1.434;2023-06-14T16:00:10;25.60;99.90
14061;DHT22;7105;43.616;1.434;2023-06-14T16:02:36;25.40;99.90